sensor_id;sensor_type;location;lat;lon;timestamp;pressure;altitude;pressure_sealevel;temperature;humidity
42003;BME280;27693;50.506;30.832;2022-07-12T00:00:35;99237.05;;;14.37;85.94
42003;BME280;27693;50.506;30.832;2022-07-12T00:01:38;99240.48;;;14.38;85.53
42003;BME280;27693;50.506;30.832;2022-07-12T00:02:41;99238.69;;;14.38;85.26
42003;BME280;27693;50.506;30.832;2022-07-12T00:03:44;99242.98;;;14.40;85.18
42003;BME280;27693;50.506;30.832;2022-07-12T00:04:47;99243.92;;;14.38;85.35
42003;BME280;27693;50.506;30.832;2022-07-12T00:05:50;99252.74;;;14.37;85.59
42003;BME280;27693;50.506;30.832;2022-07-12T00:06:53;99256.30;;;14.36;85.41
42003;BME280;27693;50.506;30.832;2022-07-12T00:07:56;99246.03;;;14.33;85.60
42003;BME280;27693;50.506;30.832;2022-07-12T00:08:58;99246.88;;;14.34;86.45
42003;BME280;27693;50.506;30.832;2022-07-12T00:10:01;99241.84;;;14.31;86.41
42003;BME280;27693;50.506;30.832;2022-07-12T00:11:05;99249.92;;;14.28;86.80
42003;BME280;27693;50.506;30.832;2022-07-12T00:12:08;99242.08;;;14.28;86.70
42003;BME280;27693;50.506;30.832;2022-07-12T00:13:11;99248.25;;;14.27;86.17
42003;BME280;27693;50.506;30.832;2022-07-12T00:14:14;99245.00;;;14.23;86.49
42003;BME280;27693;50.506;30.832;2022-07-12T00:15:17;99241.64;;;14.21;86.80
42003;BME280;27693;50.506;30.832;2022-07-12T00:16:21;99247.70;;;14.21;87.23
42003;BME280;27693;50.506;30.832;2022-07-12T00:17:24;99244.15;;;14.22;87.15
42003;BME280;27693;50.506;30.832;2022-07-12T00:18:27;99250.43;;;14.20;86.93
42003;BME280;27693;50.506;30.832;2022-07-12T00:19:30;99247.07;;;14.18;87.61
42003;BME280;27693;50.506;30.832;2022-07-12T00:20:37;99246.44;;;14.14;88.35
42003;BME280;27693;50.506;30.832;2022-07-12T00:21:39;99251.91;;;14.11;89.70
42003;BME280;27693;50.506;30.832;2022-07-12T00:22:43;99233.08;;;14.06;89.29
42003;BME280;27693;50.506;30.832;2022-07-12T00:23:46;99243.73;;;14.03;89.52
42003;BME280;27693;50.506;30.832;2022-07-12T00:24:49;99232.34;;;14.04;90.21
42003;BME280;27693;50.506;30.832;2022-07-12T00:25:51;99234.95;;;14.04;89.34
42003;BME280;27693;50.506;30.832;2022-07-12T00:26:54;99244.59;;;14.03;88.95
42003;BME280;27693;50.506;30.832;2022-07-12T00:27:57;99245.61;;;14.01;88.64
42003;BME280;27693;50.506;30.832;2022-07-12T00:29:02;99247.28;;;14.02;88.68
42003;BME280;27693;50.506;30.832;2022-07-12T00:30:08;99252.32;;;14.05;88.31
42003;BME280;27693;50.506;30.832;2022-07-12T00:31:11;99247.09;;;14.05;88.06
42003;BME280;27693;50.506;30.832;2022-07-12T00:32:14;99241.75;;;14.06;87.84
42003;BME280;27693;50.506;30.832;2022-07-12T00:33:16;99247.72;;;14.09;87.89
42003;BME280;27693;50.506;30.832;2022-07-12T00:34:19;99245.81;;;14.11;87.82
42003;BME280;27693;50.506;30.832;2022-07-12T00:35:22;99252.53;;;14.15;87.84
42003;BME280;27693;50.506;30.832;2022-07-12T00:36:26;99251.67;;;14.14;87.61
42003;BME280;27693;50.506;30.832;2022-07-12T00:37:29;99251.67;;;14.14;87.80
42003;BME280;27693;50.506;30.832;2022-07-12T00:38:32;99248.35;;;14.12;88.76
42003;BME280;27693;50.506;30.832;2022-07-12T00:39:35;99250.45;;;14.07;88.55
42003;BME280;27693;50.506;30.832;2022-07-12T00:40:37;99255.24;;;14.00;89.04
42003;BME280;27693;50.506;30.832;2022-07-12T00:41:40;99253.98;;;13.93;89.75
42003;BME280;27693;50.506;30.832;2022-07-12T00:42:43;99251.67;;;13.88;90.11
42003;BME280;27693;50.506;30.832;2022-07-12T00:43:46;99250.21;;;13.84;90.24
42003;BME280;27693;50.506;30.832;2022-07-12T00:44:48;99251.27;;;13.82;90.83
42003;BME280;27693;50.506;30.832;2022-07-12T00:45:51;99251.89;;;13.85;91.28
42003;BME280;27693;50.506;30.832;2022-07-12T00:46:56;99257.13;;;13.85;90.92
42003;BME280;27693;50.506;30.832;2022-07-12T00:48:02;99256.19;;;13.86;91.42
42003;BME280;27693;50.506;30.832;2022-07-12T00:49:05;99250.95;;;13.86;91.36
42003;BME280;27693;50.506;30.832;2022-07-12T00:51:18;99252.83;;;13.84;91.39
42003;BME280;27693;50.506;30.832;2022-07-12T00:52:21;99247.08;;;13.79;91.73
42003;BME280;27693;50.506;30.832;2022-07-12T00:53:24;99242.97;;;13.75;91.89
42003;BME280;27693;50.506;30.832;2022-07-12T00:54:28;99252.50;;;13.76;92.45
42003;BME280;27693;50.506;30.832;2022-07-12T00:55:31;99241.41;;;13.72;91.83
42003;BME280;27693;50.506;30.832;2022-07-12T00:56:35;99241.22;;;13.76;92.30
42003;BME280;27693;50.506;30.832;2022-07-12T00:57:39;99240.36;;;13.75;91.55
42003;BME280;27693;50.506;30.832;2022-07-12T00:58:44;99239.31;;;13.78;91.65
42003;BME280;27693;50.506;30.832;2022-07-12T00:59:47;99240.17;;;13.78;91.22
42003;BME280;27693;50.506;30.832;2022-07-12T01:00:50;99246.11;;;13.80;90.96
42003;BME280;27693;50.506;30.832;2022-07-12T01:01:53;99243.72;;;13.77;90.63
42003;BME280;27693;50.506;30.832;2022-07-12T01:02:58;99245.59;;;13.75;90.42
42003;BME280;27693;50.506;30.832;2022-07-12T01:04:02;99242.04;;;13.76;90.52
42003;BME280;27693;50.506;30.832;2022-07-12T01:05:07;99244.66;;;13.76;90.58
42003;BME280;27693;50.506;30.832;2022-07-12T01:06:11;99241.84;;;13.79;90.34
42003;BME280;27693;50.506;30.832;2022-07-12T01:07:14;99247.08;;;13.79;89.87
42003;BME280;27693;50.506;30.832;2022-07-12T01:08:17;99245.17;;;13.81;89.66
42003;BME280;27693;50.506;30.832;2022-07-12T01:09:21;99240.88;;;13.80;89.45
42003;BME280;27693;50.506;30.832;2022-07-12T01:10:25;99246.03;;;13.82;89.51
42003;BME280;27693;50.506;30.832;2022-07-12T01:11:28;99237.33;;;13.81;89.80
42003;BME280;27693;50.506;30.832;2022-07-12T01:12:31;99238.59;;;13.88;89.57
42003;BME280;27693;50.506;30.832;2022-07-12T01:13:34;99239.34;;;13.90;88.98
42003;BME280;27693;50.506;30.832;2022-07-12T01:14:38;99239.34;;;13.90;88.93
42003;BME280;27693;50.506;30.832;2022-07-12T01:15:41;99241.73;;;13.94;88.31
42003;BME280;27693;50.506;30.832;2022-07-12T01:16:45;99235.79;;;13.92;88.64
42003;BME280;27693;50.506;30.832;2022-07-12T01:17:49;99242.70;;;13.93;88.45
42003;BME280;27693;50.506;30.832;2022-07-12T01:18:54;99238.30;;;13.93;88.51
42003;BME280;27693;50.506;30.832;2022-07-12T01:19:58;99235.79;;;13.92;88.44
42003;BME280;27693;50.506;30.832;2022-07-12T01:21:03;99239.97;;;13.94;88.17
42003;BME280;27693;50.506;30.832;2022-07-12T01:22:11;99241.02;;;13.92;88.13
42003;BME280;27693;50.506;30.832;2022-07-12T01:23:15;99237.47;;;13.93;88.14
42003;BME280;27693;50.506;30.832;2022-07-12T01:24:19;99242.89;;;13.89;87.83
42003;BME280;27693;50.506;30.832;2022-07-12T01:25:23;99240.27;;;13.89;88.12
42003;BME280;27693;50.506;30.832;2022-07-12T01:26:28;99239.34;;;13.90;87.94
42003;BME280;27693;50.506;30.832;2022-07-12T01:27:31;99237.66;;;13.89;87.96
42003;BME280;27693;50.506;30.832;2022-07-12T01:28:34;99236.61;;;13.92;88.19
42003;BME280;27693;50.506;30.832;2022-07-12T01:29:37;99238.92;;;13.97;88.23
42003;BME280;27693;50.506;30.832;2022-07-12T01:30:41;99240.38;;;14.01;87.66
42003;BME280;27693;50.506;30.832;2022-07-12T01:31:44;99239.36;;;14.03;87.50
42003;BME280;27693;50.506;30.832;2022-07-12T01:32:47;99242.69;;;14.05;87.45
42003;BME280;27693;50.506;30.832;2022-07-12T01:33:50;99234.95;;;14.04;87.26
42003;BME280;27693;50.506;30.832;2022-07-12T01:34:55;99229.72;;;14.04;86.99
42003;BME280;27693;50.506;30.832;2022-07-12T01:35:58;99228.98;;;14.02;87.03
42003;BME280;27693;50.506;30.832;2022-07-12T01:37:02;99245.61;;;14.01;86.82
42003;BME280;27693;50.506;30.832;2022-07-12T01:38:05;99226.36;;;14.02;86.78
42003;BME280;27693;50.506;30.832;2022-07-12T01:39:08;99234.95;;;14.04;87.09
42003;BME280;27693;50.506;30.832;2022-07-12T01:40:14;99228.05;;;14.03;86.98
42003;BME280;27693;50.506;30.832;2022-07-12T01:41:18;99224.69;;;14.01;86.80
42003;BME280;27693;50.506;30.832;2022-07-12T01:42:22;99228.05;;;14.03;86.88
42003;BME280;27693;50.506;30.832;2022-07-12T01:43:26;99227.22;;;14.02;87.03
42003;BME280;27693;50.506;30.832;2022-07-12T01:44:31;99224.69;;;14.01;86.84
42003;BME280;27693;50.506;30.832;2022-07-12T01:45:36;99227.84;;;14.06;86.66
42003;BME280;27693;50.506;30.832;2022-07-12T01:46:39;99226.99;;;14.05;86.19
42003;BME280;27693;50.506;30.832;2022-07-12T01:47:41;99223.66;;;14.03;86.11
42003;BME280;27693;50.506;30.832;2022-07-12T01:48:44;99222.18;;;13.99;86.31
42003;BME280;27693;50.506;30.832;2022-07-12T01:49:47;99223.86;;;14.00;86.60
42003;BME280;27693;50.506;30.832;2022-07-12T01:50:50;99230.66;;;14.03;86.63
42003;BME280;27693;50.506;30.832;2022-07-12T01:51:57;99222.62;;;14.06;85.99
42003;BME280;27693;50.506;30.832;2022-07-12T01:53:01;99227.62;;;14.09;85.98
42003;BME280;27693;50.506;30.832;2022-07-12T01:54:04;99225.75;;;14.11;85.95
42003;BME280;27693;50.506;30.832;2022-07-12T01:55:08;99232.66;;;14.12;86.15
42003;BME280;27693;50.506;30.832;2022-07-12T01:56:12;99232.66;;;14.12;85.93
42003;BME280;27693;50.506;30.832;2022-07-12T01:57:15;99237.97;;;14.11;86.07
42003;BME280;27693;50.506;30.832;2022-07-12T01:58:19;99233.79;;;14.08;86.17
42003;BME280;27693;50.506;30.832;2022-07-12T01:59:22;99238.94;;;14.10;86.45
42003;BME280;27693;50.506;30.832;2022-07-12T02:00:27;99235.27;;;14.12;86.28
42003;BME280;27693;50.506;30.832;2022-07-12T02:01:30;99246.67;;;14.11;86.17
42003;BME280;27693;50.506;30.832;2022-07-12T02:02:34;99239.77;;;14.10;86.37
42003;BME280;27693;50.506;30.832;2022-07-12T02:03:37;99239.13;;;14.06;86.33
42003;BME280;27693;50.506;30.832;2022-07-12T02:04:41;99237.88;;;13.99;86.65
42003;BME280;27693;50.506;30.832;2022-07-12T02:05:44;99240.60;;;13.98;86.48
42003;BME280;27693;50.506;30.832;2022-07-12T02:06:48;99235.38;;;13.98;86.68
42003;BME280;27693;50.506;30.832;2022-07-12T02:07:51;99244.34;;;13.94;86.96
42003;BME280;27693;50.506;30.832;2022-07-12T02:08:55;99249.27;;;13.98;86.89
42003;BME280;27693;50.506;30.832;2022-07-12T02:09:58;99239.03;;;13.95;87.06
42003;BME280;27693;50.506;30.832;2022-07-12T02:11:01;99240.80;;;13.95;87.27
42003;BME280;27693;50.506;30.832;2022-07-12T02:12:05;99240.80;;;13.95;87.35
42003;BME280;27693;50.506;30.832;2022-07-12T02:13:10;99253.05;;;13.94;87.53
42003;BME280;27693;50.506;30.832;2022-07-12T02:14:13;99246.02;;;13.95;87.41
42003;BME280;27693;50.506;30.832;2022-07-12T02:15:16;99242.70;;;13.93;87.42
42003;BME280;27693;50.506;30.832;2022-07-12T02:16:20;99246.44;;;13.88;87.23
42003;BME280;27693;50.506;30.832;2022-07-12T02:17:23;99246.44;;;13.88;87.23
42003;BME280;27693;50.506;30.832;2022-07-12T02:18:25;99249.16;;;13.87;87.62
42003;BME280;27693;50.506;30.832;2022-07-12T02:19:28;99245.09;;;13.83;87.80
42003;BME280;27693;50.506;30.832;2022-07-12T02:20:31;99243.50;;;13.80;88.08
42003;BME280;27693;50.506;30.832;2022-07-12T02:21:34;99249.36;;;13.84;88.12
42003;BME280;27693;50.506;30.832;2022-07-12T02:22:37;99244.68;;;13.89;87.74
42003;BME280;27693;50.506;30.832;2022-07-12T02:23:40;99244.05;;;13.85;87.85
42003;BME280;27693;50.506;30.832;2022-07-12T02:24:43;99249.99;;;13.87;87.99
42003;BME280;27693;50.506;30.832;2022-07-12T02:25:46;99246.11;;;13.80;88.24
42003;BME280;27693;50.506;30.832;2022-07-12T02:26:49;99245.48;;;13.77;88.36
42003;BME280;27693;50.506;30.832;2022-07-12T02:27:52;99249.77;;;13.78;88.56
42003;BME280;27693;50.506;30.832;2022-07-12T02:28:55;99240.66;;;13.70;88.78
42003;BME280;27693;50.506;30.832;2022-07-12T02:29:58;99246.94;;;13.68;88.91
42003;BME280;27693;50.506;30.832;2022-07-12T02:31:01;99245.81;;;13.72;88.99
42003;BME280;27693;50.506;30.832;2022-07-12T02:32:04;99248.02;;;13.78;88.79
42003;BME280;27693;50.506;30.832;2022-07-12T02:33:07;99242.04;;;13.76;88.67
42003;BME280;27693;50.506;30.832;2022-07-12T02:34:09;99248.31;;;13.73;88.86
42003;BME280;27693;50.506;30.832;2022-07-12T02:35:12;99247.08;;;13.79;88.87
42003;BME280;27693;50.506;30.832;2022-07-12T02:36:15;99255.44;;;13.84;88.46
42003;BME280;27693;50.506;30.832;2022-07-12T02:37:19;99257.13;;;13.85;87.94
42003;BME280;27693;50.506;30.832;2022-07-12T02:38:22;99249.99;;;13.87;88.17
42003;BME280;27693;50.506;30.832;2022-07-12T02:39:26;99247.27;;;13.76;88.16
42003;BME280;27693;50.506;30.832;2022-07-12T02:40:29;99256.79;;;13.77;88.59
42003;BME280;27693;50.506;30.832;2022-07-12T02:41:32;99263.14;;;13.73;88.49
42003;BME280;27693;50.506;30.832;2022-07-12T02:42:35;99262.32;;;13.72;88.40
42003;BME280;27693;50.506;30.832;2022-07-12T02:43:38;99262.62;;;13.68;88.43
42003;BME280;27693;50.506;30.832;2022-07-12T02:44:41;99266.58;;;13.61;88.83
42003;BME280;27693;50.506;30.832;2022-07-12T02:45:44;99269.00;;;13.64;89.06
42003;BME280;27693;50.506;30.832;2022-07-12T02:46:47;99266.91;;;13.69;89.06
42003;BME280;27693;50.506;30.832;2022-07-12T02:47:50;99275.16;;;13.63;89.16
42003;BME280;27693;50.506;30.832;2022-07-12T02:48:55;99273.48;;;13.62;89.35
42003;BME280;27693;50.506;30.832;2022-07-12T02:49:59;99277.95;;;13.60;89.55
42003;BME280;27693;50.506;30.832;2022-07-12T02:51:03;99272.95;;;13.56;89.53
42003;BME280;27693;50.506;30.832;2022-07-12T02:52:06;99279.64;;;13.61;89.63
42003;BME280;27693;50.506;30.832;2022-07-12T02:53:09;99279.64;;;13.61;89.30
42003;BME280;27693;50.506;30.832;2022-07-12T02:54:12;99277.14;;;13.59;89.33
42003;BME280;27693;50.506;30.832;2022-07-12T02:55:15;99281.61;;;13.57;89.51
42003;BME280;27693;50.506;30.832;2022-07-12T02:56:19;99279.45;;;13.64;89.61
42003;BME280;27693;50.506;30.832;2022-07-12T02:57:22;99286.36;;;13.65;89.21
42003;BME280;27693;50.506;30.832;2022-07-12T02:58:25;99282.36;;;13.59;89.30
42003;BME280;27693;50.506;30.832;2022-07-12T02:59:28;99280.91;;;13.68;89.05
42003;BME280;27693;50.506;30.832;2022-07-12T03:00:31;99281.95;;;13.65;88.81
42003;BME280;27693;50.506;30.832;2022-07-12T03:01:34;99280.39;;;13.63;88.68
42003;BME280;27693;50.506;30.832;2022-07-12T03:02:37;99282.36;;;13.59;88.57
42003;BME280;27693;50.506;30.832;2022-07-12T03:03:41;99288.23;;;13.63;88.84
42003;BME280;27693;50.506;30.832;2022-07-12T03:04:44;99277.77;;;13.63;88.26
42003;BME280;27693;50.506;30.832;2022-07-12T03:05:46;99277.03;;;13.61;87.90
42003;BME280;27693;50.506;30.832;2022-07-12T03:06:50;99276.95;;;13.62;87.94
42003;BME280;27693;50.506;30.832;2022-07-12T03:07:54;99281.14;;;13.65;87.76
42003;BME280;27693;50.506;30.832;2022-07-12T03:08:56;99280.91;;;13.68;87.67
42003;BME280;27693;50.506;30.832;2022-07-12T03:09:59;99270.76;;;13.63;86.74
42003;BME280;27693;50.506;30.832;2022-07-12T03:11:02;99281.32;;;13.62;87.27
42003;BME280;27693;50.506;30.832;2022-07-12T03:12:05;99267.13;;;13.66;87.21
42003;BME280;27693;50.506;30.832;2022-07-12T03:13:08;99277.37;;;13.69;86.75
42003;BME280;27693;50.506;30.832;2022-07-12T03:14:11;99278.11;;;13.71;86.49
42003;BME280;27693;50.506;30.832;2022-07-12T03:15:14;99286.59;;;13.74;86.54
42003;BME280;27693;50.506;30.832;2022-07-12T03:16:18;99274.34;;;13.75;86.59
42003;BME280;27693;50.506;30.832;2022-07-12T03:17:22;99280.51;;;13.74;86.36
42003;BME280;27693;50.506;30.832;2022-07-12T03:18:25;99279.69;;;13.73;86.07
42003;BME280;27693;50.506;30.832;2022-07-12T03:19:29;99276.44;;;13.70;85.93
42003;BME280;27693;50.506;30.832;2022-07-12T03:20:33;99278.22;;;13.69;86.37
42003;BME280;27693;50.506;30.832;2022-07-12T03:21:36;99282.41;;;13.72;86.41
42003;BME280;27693;50.506;30.832;2022-07-12T03:22:40;99276.66;;;13.80;86.38
42003;BME280;27693;50.506;30.832;2022-07-12T03:23:45;99275.69;;;13.68;85.87
42003;BME280;27693;50.506;30.832;2022-07-12T03:24:48;99282.59;;;13.69;86.35
42003;BME280;27693;50.506;30.832;2022-07-12T03:25:50;99282.41;;;13.72;86.11
42003;BME280;27693;50.506;30.832;2022-07-12T03:26:53;99282.41;;;13.72;86.51
42003;BME280;27693;50.506;30.832;2022-07-12T03:27:56;99273.60;;;13.73;86.09
42003;BME280;27693;50.506;30.832;2022-07-12T03:29:00;99279.58;;;13.75;85.89
42003;BME280;27693;50.506;30.832;2022-07-12T03:30:03;99279.23;;;13.67;85.63
42003;BME280;27693;50.506;30.832;2022-07-12T03:31:07;99286.67;;;13.73;85.81
42003;BME280;27693;50.506;30.832;2022-07-12T03:32:10;99287.63;;;13.72;85.74
42003;BME280;27693;50.506;30.832;2022-07-12T03:33:12;99279.05;;;13.70;85.93
42003;BME280;27693;50.506;30.832;2022-07-12T03:34:15;99280.73;;;13.71;86.02
42003;BME280;27693;50.506;30.832;2022-07-12T03:35:18;99278.41;;;13.66;86.08
42003;BME280;27693;50.506;30.832;2022-07-12T03:36:22;99279.05;;;13.70;85.92
42003;BME280;27693;50.506;30.832;2022-07-12T03:37:25;99275.91;;;13.78;86.14
42003;BME280;27693;50.506;30.832;2022-07-12T03:38:28;99277.18;;;13.72;85.94
42003;BME280;27693;50.506;30.832;2022-07-12T03:39:31;99274.45;;;13.73;86.12
42003;BME280;27693;50.506;30.832;2022-07-12T03:40:36;99275.84;;;13.79;86.23
42003;BME280;27693;50.506;30.832;2022-07-12T03:41:40;99276.84;;;13.77;86.36
42003;BME280;27693;50.506;30.832;2022-07-12T03:42:45;99276.77;;;13.78;86.27
42003;BME280;27693;50.506;30.832;2022-07-12T03:43:48;99278.23;;;13.82;86.17
42003;BME280;27693;50.506;30.832;2022-07-12T03:44:52;99280.95;;;13.81;86.29
42003;BME280;27693;50.506;30.832;2022-07-12T03:45:55;99286.82;;;13.84;86.45
42003;BME280;27693;50.506;30.832;2022-07-12T03:47:02;99282.00;;;13.78;86.51
42003;BME280;27693;50.506;30.832;2022-07-12T03:48:05;99289.50;;;13.70;86.79
42003;BME280;27693;50.506;30.832;2022-07-12T03:49:13;99289.92;;;13.77;87.04
42003;BME280;27693;50.506;30.832;2022-07-12T03:50:18;99283.87;;;13.76;86.75
42003;BME280;27693;50.506;30.832;2022-07-12T03:51:20;99287.64;;;13.85;86.68
42003;BME280;27693;50.506;30.832;2022-07-12T03:52:24;99288.16;;;13.77;86.71
42003;BME280;27693;50.506;30.832;2022-07-12T03:53:26;99291.82;;;13.74;86.94
42003;BME280;27693;50.506;30.832;2022-07-12T03:54:29;99290.97;;;13.74;87.26
42003;BME280;27693;50.506;30.832;2022-07-12T03:55:33;99297.05;;;13.74;87.43
42003;BME280;27693;50.506;30.832;2022-07-12T03:56:36;99298.52;;;13.79;87.26
42003;BME280;27693;50.506;30.832;2022-07-12T03:57:39;99293.50;;;13.76;86.71
42003;BME280;27693;50.506;30.832;2022-07-12T03:58:42;99296.00;;;13.77;87.14
42003;BME280;27693;50.506;30.832;2022-07-12T03:59:47;99297.88;;;13.75;87.08
42003;BME280;27693;50.506;30.832;2022-07-12T04:00:50;99300.89;;;13.69;87.26
42003;BME280;27693;50.506;30.832;2022-07-12T04:01:53;99298.63;;;13.77;87.43
42003;BME280;27693;50.506;30.832;2022-07-12T04:02:58;99296.19;;;13.74;87.24
42003;BME280;27693;50.506;30.832;2022-07-12T04:04:00;99295.26;;;13.75;87.44
42003;BME280;27693;50.506;30.832;2022-07-12T04:05:05;99289.09;;;13.76;87.41
42003;BME280;27693;50.506;30.832;2022-07-12T04:06:08;99290.56;;;13.80;86.95
42003;BME280;27693;50.506;30.832;2022-07-12T04:07:11;99292.45;;;13.78;86.90
42003;BME280;27693;50.506;30.832;2022-07-12T04:08:14;99286.38;;;13.78;86.60
42003;BME280;27693;50.506;30.832;2022-07-12T04:09:17;99290.78;;;13.77;86.87
42003;BME280;27693;50.506;30.832;2022-07-12T04:10:20;99292.05;;;13.84;86.76
42003;BME280;27693;50.506;30.832;2022-07-12T04:11:23;99290.37;;;13.83;86.51
42003;BME280;27693;50.506;30.832;2022-07-12T04:12:25;99292.23;;;13.81;85.79
42003;BME280;27693;50.506;30.832;2022-07-12T04:13:30;99294.14;;;13.79;86.03
42003;BME280;27693;50.506;30.832;2022-07-12T04:14:32;99292.05;;;13.84;86.46
42003;BME280;27693;50.506;30.832;2022-07-12T04:15:35;99300.42;;;13.89;85.85
42003;BME280;27693;50.506;30.832;2022-07-12T04:16:40;99301.88;;;13.94;85.46
42003;BME280;27693;50.506;30.832;2022-07-12T04:17:43;99304.60;;;13.92;85.19
42003;BME280;27693;50.506;30.832;2022-07-12T04:18:46;99296.64;;;13.94;85.63
42003;BME280;27693;50.506;30.832;2022-07-12T04:19:48;99303.55;;;13.95;85.34
42003;BME280;27693;50.506;30.832;2022-07-12T04:20:51;99302.20;;;14.02;84.83
42003;BME280;27693;50.506;30.832;2022-07-12T04:21:54;99308.93;;;14.06;84.35
42003;BME280;27693;50.506;30.832;2022-07-12T04:22:57;99307.44;;;14.02;84.01
42003;BME280;27693;50.506;30.832;2022-07-12T04:24:00;99311.73;;;14.03;84.23
42003;BME280;27693;50.506;30.832;2022-07-12T04:25:06;99308.70;;;14.09;84.18
42003;BME280;27693;50.506;30.832;2022-07-12T04:26:11;99305.48;;;14.18;83.56
42003;BME280;27693;50.506;30.832;2022-07-12T04:27:14;99311.34;;;14.22;81.29
42003;BME280;27693;50.506;30.832;2022-07-12T04:28:17;99312.81;;;14.13;80.28
42003;BME280;27693;50.506;30.832;2022-07-12T04:29:20;99303.99;;;14.14;80.66
42003;BME280;27693;50.506;30.832;2022-07-12T04:30:24;99318.14;;;14.25;80.77
42003;BME280;27693;50.506;30.832;2022-07-12T04:31:27;99306.33;;;14.32;81.36
42003;BME280;27693;50.506;30.832;2022-07-12T04:32:30;99300.97;;;14.85;80.91
42003;BME280;27693;50.506;30.832;2022-07-12T04:33:33;99305.79;;;14.78;78.01
42003;BME280;27693;50.506;30.832;2022-07-12T04:34:36;99311.97;;;14.51;78.33
42003;BME280;27693;50.506;30.832;2022-07-12T04:35:39;99301.09;;;14.45;79.08
42003;BME280;27693;50.506;30.832;2022-07-12T04:36:45;99314.91;;;14.34;78.65
42003;BME280;27693;50.506;30.832;2022-07-12T04:37:48;99309.98;;;14.29;78.95
42003;BME280;27693;50.506;30.832;2022-07-12T04:38:50;99312.80;;;14.26;79.24
42003;BME280;27693;50.506;30.832;2022-07-12T04:39:53;99306.42;;;14.43;80.01
42003;BME280;27693;50.506;30.832;2022-07-12T04:40:58;99309.03;;;14.43;79.00
42003;BME280;27693;50.506;30.832;2022-07-12T04:42:04;99296.89;;;14.42;79.30
42003;BME280;27693;50.506;30.832;2022-07-12T04:43:07;99301.09;;;14.45;79.54
42003;BME280;27693;50.506;30.832;2022-07-12T04:44:10;99302.55;;;14.49;79.61
42003;BME280;27693;50.506;30.832;2022-07-12T04:45:13;99305.70;;;14.41;79.73
42003;BME280;27693;50.506;30.832;2022-07-12T04:46:16;99301.80;;;14.85;80.52
42003;BME280;27693;50.506;30.832;2022-07-12T04:47:21;99306.30;;;14.83;78.23
42003;BME280;27693;50.506;30.832;2022-07-12T04:48:24;99310.09;;;14.79;78.39
42003;BME280;27693;50.506;30.832;2022-07-12T04:49:26;99312.40;;;14.58;78.25
42003;BME280;27693;50.506;30.832;2022-07-12T04:50:29;99308.19;;;14.56;78.75
42003;BME280;27693;50.506;30.832;2022-07-12T04:51:33;99302.75;;;14.59;79.13
42003;BME280;27693;50.506;30.832;2022-07-12T04:52:36;99304.03;;;14.66;78.90
42003;BME280;27693;50.506;30.832;2022-07-12T04:53:39;99301.41;;;14.66;78.76
42003;BME280;27693;50.506;30.832;2022-07-12T04:54:43;99305.02;;;15.02;79.50
42003;BME280;27693;50.506;30.832;2022-07-12T04:55:45;99302.30;;;14.91;77.85
42003;BME280;27693;50.506;30.832;2022-07-12T04:56:48;99300.63;;;14.90;77.84
42003;BME280;27693;50.506;30.832;2022-07-12T04:57:52;99300.63;;;14.90;77.86
42003;BME280;27693;50.506;30.832;2022-07-12T04:58:57;99311.84;;;14.92;77.96
42003;BME280;27693;50.506;30.832;2022-07-12T05:00:04;99323.26;;;14.91;77.78
42003;BME280;27693;50.506;30.832;2022-07-12T05:01:07;99302.34;;;14.78;77.76
42003;BME280;27693;50.506;30.832;2022-07-12T05:02:12;99313.64;;;14.78;77.72
42003;BME280;27693;50.506;30.832;2022-07-12T05:03:15;99314.50;;;14.79;77.85
42003;BME280;27693;50.506;30.832;2022-07-12T05:04:17;99316.38;;;14.77;77.79
42003;BME280;27693;50.506;30.832;2022-07-12T05:05:20;99313.02;;;14.88;77.63
42003;BME280;27693;50.506;30.832;2022-07-12T05:06:24;99314.89;;;14.85;77.60
42003;BME280;27693;50.506;30.832;2022-07-12T05:07:27;99314.77;;;14.87;77.96
42003;BME280;27693;50.506;30.832;2022-07-12T05:08:29;99327.25;;;14.83;77.41
42003;BME280;27693;50.506;30.832;2022-07-12T05:09:34;99326.93;;;14.88;77.65
42003;BME280;27693;50.506;30.832;2022-07-12T05:10:37;99316.64;;;14.98;77.51
42003;BME280;27693;50.506;30.832;2022-07-12T05:11:41;99313.38;;;15.07;77.67
42003;BME280;27693;50.506;30.832;2022-07-12T05:12:44;99329.48;;;15.14;77.85
42003;BME280;27693;50.506;30.832;2022-07-12T05:13:48;99328.16;;;15.08;78.00
42003;BME280;27693;50.506;30.832;2022-07-12T05:14:51;99337.26;;;15.15;77.75
42003;BME280;27693;50.506;30.832;2022-07-12T05:15:54;99321.86;;;15.11;76.94
42003;BME280;27693;50.506;30.832;2022-07-12T05:16:58;99321.36;;;15.06;77.69
42003;BME280;27693;50.506;30.832;2022-07-12T05:18:01;99316.94;;;15.06;76.81
42003;BME280;27693;50.506;30.832;2022-07-12T05:19:04;99326.59;;;15.06;77.16
42003;BME280;27693;50.506;30.832;2022-07-12T05:20:08;99321.98;;;15.09;76.41
42003;BME280;27693;50.506;30.832;2022-07-12T05:21:11;99321.98;;;15.09;76.41
42003;BME280;27693;50.506;30.832;2022-07-12T05:22:16;99333.70;;;15.16;76.92
42003;BME280;27693;50.506;30.832;2022-07-12T05:23:19;99333.70;;;15.16;75.64
42003;BME280;27693;50.506;30.832;2022-07-12T05:24:22;99333.16;;;15.11;75.95
42003;BME280;27693;50.506;30.832;2022-07-12T05:25:25;99341.64;;;15.15;76.46
42003;BME280;27693;50.506;30.832;2022-07-12T05:26:28;99338.70;;;15.20;76.78
42003;BME280;27693;50.506;30.832;2022-07-12T05:27:31;99341.00;;;15.24;77.02
42003;BME280;27693;50.506;30.832;2022-07-12T05:28:35;99332.58;;;15.32;76.78
42003;BME280;27693;50.506;30.832;2022-07-12T05:29:39;99336.67;;;15.36;76.55
42003;BME280;27693;50.506;30.832;2022-07-12T05:30:43;99339.67;;;15.43;76.32
42003;BME280;27693;50.506;30.832;2022-07-12T05:31:47;99335.98;;;15.45;75.96
42003;BME280;27693;50.506;30.832;2022-07-12T05:32:50;99342.38;;;15.54;75.58